Time;durP1;ratioP1;P1;durP2;ratioP2;P2;SDS_P1;SDS_P2;PMS_P1;PMS_P2;Temp;Humidity;BMP_temperature;BMP_pressure;BME280_temperature;BME280_humidity;BME280_pressure;Samples;Min_cycle;Max_cycle;Signal;HPM_P1;HPM_P2
2022/07/09 00:01:23;;;;;;;2.70;1.30;;;24.70;52.70;;;;;;220535;1267;24764;-51
2022/07/09 00:06:28;;;;;;;2.10;1.20;;;24.70;52.70;;;;;;220187;1268;25440;-50
2022/07/09 00:11:36;;;;;;;3.10;1.50;;;24.70;53.10;;;;;;220013;1271;24538;-50
2022/07/09 00:16:40;;;;;;;2.60;1.30;;;24.70;53.10;;;;;;220158;1267;24237;-52
2022/07/09 00:21:53;;;;;;;2.50;1.40;;;24.70;52.80;;;;;;220124;1268;22567;-52
2022/07/09 00:26:57;;;;;;;2.30;1.50;;;24.70;52.80;;;;;;220511;1267;25366;-53
2022/07/09 00:32:01;;;;;;;2.50;1.30;;;24.70;53.10;;;;;;220121;1267;22533;-52
2022/07/09 00:37:05;;;;;;;2.80;1.50;;;24.70;52.80;;;;;;220509;1267;24463;-53
2022/07/09 00:42:10;;;;;;;3.00;1.30;;;24.70;52.80;;;;;;220118;1270;25232;-51
2022/07/09 00:47:14;;;;;;;2.30;1.40;;;24.70;52.80;;;;;;220099;1268;22557;-52
2022/07/09 00:52:19;;;;;;;1.90;1.20;;;24.60;52.80;;;;;;220098;1270;22532;-55
2022/07/09 00:57:23;;;;;;;3.40;1.70;;;24.70;53.00;;;;;;220298;1267;22707;-52
2022/07/09 01:02:26;;;;;;;2.70;1.20;;;24.60;52.90;;;;;;220199;1270;22607;-51
2022/07/09 01:07:30;;;;;;;2.80;1.60;;;24.60;52.90;;;;;;220365;1267;22543;-52
2022/07/09 01:12:34;;;;;;;3.40;1.50;;;24.70;53.00;;;;;;220347;1267;22525;-52
2022/07/09 01:17:42;;;;;;;2.10;1.20;;;24.60;53.00;;;;;;220359;1267;24776;-53
2022/07/09 01:22:46;;;;;;;3.80;1.80;;;24.60;53.00;;;;;;220105;1270;24221;-51
2022/07/09 01:27:50;;;;;;;2.40;1.30;;;24.60;53.00;;;;;;220211;1268;25235;-53
2022/07/09 01:32:54;;;;;;;2.10;1.20;;;24.60;53.00;;;;;;219928;1267;305195;-52
2022/07/09 01:37:58;;;;;;;2.80;1.40;;;24.50;53.00;;;;;;220307;1267;23974;-52
2022/07/09 01:43:03;;;;;;;3.30;1.40;;;24.50;53.30;;;;;;220054;1267;22554;-51
2022/07/09 01:48:06;;;;;;;2.00;1.30;;;24.50;53.00;;;;;;220813;1267;25458;-49
2022/07/09 01:53:10;;;;;;;2.80;1.30;;;24.50;53.60;;;;;;220612;1268;25233;-51
2022/07/09 01:58:14;;;;;;;2.20;1.40;;;24.50;53.10;;;;;;220410;1267;25873;-53
2022/07/09 02:03:17;;;;;;;2.50;1.40;;;24.50;52.80;;;;;;220073;1267;25396;-49
2022/07/09 02:08:22;;;;;;;3.00;1.40;;;24.50;52.70;;;;;;219991;1271;25353;-54
2022/07/09 02:13:26;;;;;;;3.30;1.40;;;24.50;53.50;;;;;;220484;1270;26573;-54
2022/07/09 02:18:30;;;;;;;2.60;1.50;;;24.50;53.80;;;;;;220738;1270;23916;-55
2022/07/09 02:23:34;;;;;;;2.80;1.60;;;24.50;53.50;;;;;;220328;1271;22541;-50
2022/07/09 02:28:38;;;;;;;3.50;1.40;;;24.50;53.20;;;;;;220452;1267;24297;-57
2022/07/09 02:33:42;;;;;;;2.60;1.40;;;24.40;53.20;;;;;;220486;1268;22608;-52
2022/07/09 02:38:45;;;;;;;3.10;1.40;;;24.50;53.20;;;;;;220388;1268;25236;-53
2022/07/09 02:43:49;;;;;;;2.70;1.60;;;24.40;53.20;;;;;;220269;1271;22687;-51
2022/07/09 02:48:53;;;;;;;2.70;1.20;;;24.40;53.20;;;;;;220582;1267;24143;-50
2022/07/09 02:53:57;;;;;;;2.70;1.40;;;24.40;53.60;;;;;;220188;1269;25393;-52
2022/07/09 02:59:02;;;;;;;2.70;1.20;;;24.40;53.20;;;;;;220220;1271;25236;-52
2022/07/09 03:04:06;;;;;;;2.40;1.30;;;24.40;53.30;;;;;;220314;1268;22529;-53
2022/07/09 03:09:10;;;;;;;1.80;1.10;;;24.40;53.40;;;;;;220432;1269;25226;-53
2022/07/09 03:14:13;;;;;;;2.40;1.30;;;24.40;53.30;;;;;;220528;1268;22566;-51
2022/07/09 03:19:19;;;;;;;1.80;1.00;;;24.40;53.40;;;;;;220138;1272;25350;-51
2022/07/09 03:24:25;;;;;;;2.80;1.30;;;24.40;53.70;;;;;;220139;1268;24209;-50
2022/07/09 03:29:29;;;;;;;2.60;1.40;;;24.40;53.30;;;;;;220451;1268;25233;-52
2022/07/09 03:34:35;;;;;;;2.40;1.40;;;24.40;53.40;;;;;;220848;1269;24283;-53
2022/07/09 03:39:39;;;;;;;2.30;1.20;;;24.30;53.30;;;;;;220459;1269;22848;-51
2022/07/09 03:44:42;;;;;;;2.70;1.30;;;24.30;53.40;;;;;;220271;1268;22533;-52
2022/07/09 03:49:46;;;;;;;2.60;1.40;;;24.30;53.40;;;;;;220404;1268;22532;-49
2022/07/09 03:54:50;;;;;;;2.90;1.40;;;24.30;53.40;;;;;;220657;1268;24354;-51
2022/07/09 03:59:54;;;;;;;2.00;1.30;;;24.30;53.50;;;;;;220365;1268;25308;-53
2022/07/09 04:04:58;;;;;;;1.90;1.30;;;24.30;53.70;;;;;;220503;1268;22676;-51
2022/07/09 04:10:03;;;;;;;2.80;1.30;;;24.40;53.60;;;;;;220216;1271;24329;-49
2022/07/09 04:15:07;;;;;;;2.60;1.40;;;24.30;53.70;;;;;;220252;1268;22528;-54
2022/07/09 04:20:11;;;;;;;2.20;1.30;;;24.30;54.00;;;;;;220297;1268;24204;-50
2022/07/09 04:25:15;;;;;;;2.50;1.20;;;24.30;53.80;;;;;;220537;1268;24431;-52
2022/07/09 04:30:18;;;;;;;2.90;1.20;;;24.30;53.50;;;;;;220424;1268;24926;-52
2022/07/09 04:35:23;;;;;;;1.80;1.10;;;24.30;53.50;;;;;;220523;1268;22685;-54
2022/07/09 04:40:27;;;;;;;2.60;1.50;;;24.30;53.40;;;;;;220373;1268;22571;-55
2022/07/09 04:45:39;;;;;;;2.30;1.50;;;24.30;53.40;;;;;;220856;1268;23910;-53
2022/07/09 04:50:42;;;;;;;2.80;1.20;;;24.30;53.80;;;;;;220209;1268;25467;-54
2022/07/09 04:55:46;;;;;;;3.10;1.70;;;24.30;53.80;;;;;;220891;1269;25575;-51
2022/07/09 05:00:50;;;;;;;2.80;1.30;;;24.30;53.20;;;;;;220572;1268;25248;-50
2022/07/09 05:05:54;;;;;;;1.80;1.20;;;24.30;53.40;;;;;;220606;1268;23916;-53
2022/07/09 05:10:57;;;;;;;2.30;1.30;;;24.30;53.80;;;;;;220165;1271;25285;-53
2022/07/09 05:16:01;;;;;;;1.70;1.10;;;24.30;53.10;;;;;;220427;1269;22569;-51
2022/07/09 05:21:05;;;;;;;1.80;1.10;;;24.30;53.50;;;;;;220184;1268;22538;-53
2022/07/09 05:26:10;;;;;;;2.70;1.50;;;24.30;53.80;;;;;;219968;1269;24413;-50
2022/07/09 05:31:14;;;;;;;1.90;1.10;;;24.30;53.80;;;;;;220206;1268;25489;-53
2022/07/09 05:36:37;;;;;;;2.10;1.30;;;24.30;53.40;;;;;;220328;1268;22712;-51
2022/07/09 05:41:41;;;;;;;2.30;1.20;;;24.40;53.50;;;;;;220582;1268;25383;-53
2022/07/09 05:46:44;;;;;;;2.40;1.40;;;24.40;53.60;;;;;;220659;1268;24273;-53
2022/07/09 05:51:48;;;;;;;2.80;1.30;;;24.40;53.40;;;;;;220454;1267;25417;-49
2022/07/09 05:56:52;;;;;;;2.00;1.20;;;24.40;53.80;;;;;;220718;1267;22525;-58
2022/07/09 06:01:55;;;;;;;2.10;1.40;;;24.30;53.30;;;;;;220084;1268;25301;-52
2022/07/09 06:06:59;;;;;;;2.80;1.40;;;24.40;53.30;;;;;;220263;1267;23941;-54
2022/07/09 06:12:04;;;;;;;2.80;1.40;;;24.40;53.70;;;;;;220462;1268;22673;-54
2022/07/09 06:17:08;;;;;;;2.70;1.50;;;24.40;53.70;;;;;;220146;1268;22531;-55
2022/07/09 06:22:12;;;;;;;2.30;1.40;;;24.40;53.30;;;;;;220127;1267;23437;-52
2022/07/09 06:27:16;;;;;;;3.10;1.40;;;24.40;53.30;;;;;;220357;1267;22590;-56
2022/07/09 06:32:20;;;;;;;2.30;1.10;;;24.40;53.30;;;;;;220132;1268;22567;-51
2022/07/09 06:37:24;;;;;;;3.10;1.40;;;24.40;53.30;;;;;;220267;1268;22547;-49
2022/07/09 06:42:27;;;;;;;2.80;1.40;;;24.40;53.30;;;;;;220408;1268;22559;-53
2022/07/09 06:47:43;;;;;;;2.30;1.20;;;24.40;53.20;;;;;;220643;1268;22557;-55
2022/07/09 06:52:47;;;;;;;2.50;1.30;;;24.50;53.20;;;;;;220011;1271;25650;-55
2022/07/09 06:57:50;;;;;;;1.90;1.40;;;24.50;52.70;;;;;;220520;1268;22864;-52
2022/07/09 07:02:59;;;;;;;3.00;1.20;;;24.40;53.20;;;;;;220766;1267;25390;-52
2022/07/09 07:08:09;;;;;;;2.00;1.30;;;24.50;53.60;;;;;;220515;1268;24179;-54
2022/07/09 07:13:17;;;;;;;2.70;1.60;;;24.50;53.30;;;;;;220611;1267;24218;-52
2022/07/09 07:18:21;;;;;;;3.90;1.30;;;24.50;53.20;;;;;;220287;1268;25216;-50
2022/07/09 07:23:36;;;;;;;2.40;1.40;;;24.50;53.20;;;;;;220351;1268;24370;-53
2022/07/09 07:28:55;;;;;;;2.40;1.50;;;24.50;53.10;;;;;;220559;1267;24375;-53
2022/07/09 07:34:02;;;;;;;1.80;1.20;;;24.50;53.40;;;;;;220236;1268;22526;-51
2022/07/09 07:39:10;;;;;;;2.30;1.30;;;24.60;53.10;;;;;;220742;1267;24281;-54
2022/07/09 07:44:13;;;;;;;3.00;1.50;;;24.60;53.10;;;;;;220548;1267;25362;-52
2022/07/09 07:49:20;;;;;;;2.80;1.50;;;24.60;53.60;;;;;;220477;1268;22559;-51
2022/07/09 07:54:26;;;;;;;3.20;1.40;;;24.60;53.00;;;;;;220267;1267;24350;-53
2022/07/09 07:59:38;;;;;;;2.70;1.50;;;24.60;52.90;;;;;;220050;1268;22638;-51
2022/07/09 08:04:42;;;;;;;3.10;1.50;;;24.60;53.00;;;;;;220203;1269;22559;-53
2022/07/09 08:09:52;;;;;;;2.40;1.50;;;24.60;52.90;;;;;;220392;1268;22709;-50
2022/07/09 08:14:56;;;;;;;2.60;1.30;;;24.60;52.90;;;;;;220275;1267;22535;-54
2022/07/09 08:20:01;;;;;;;2.70;1.40;;;24.60;52.90;;;;;;220912;1267;22590;-52
2022/07/09 08:25:11;;;;;;;2.80;1.50;;;24.70;52.90;;;;;;220587;1268;22813;-57
2022/07/09 08:30:17;;;;;;;2.50;1.40;;;24.70;52.80;;;;;;220427;1267;24360;-52
2022/07/09 08:35:26;;;;;;;2.90;1.40;;;24.70;52.60;;;;;;220366;1267;22975;-54
2022/07/09 08:40:32;;;;;;;2.30;1.30;;;24.70;52.40;;;;;;220698;1267;24363;-53
2022/07/09 08:45:47;;;;;;;2.80;1.60;;;24.70;52.30;;;;;;220931;1268;22623;-55
2022/07/09 08:50:55;;;;;;;2.10;1.30;;;24.70;52.20;;;;;;220327;1268;25422;-57
2022/07/09 08:55:59;;;;;;;3.70;1.50;;;24.70;52.20;;;;;;220239;1270;22557;-53
2022/07/09 09:01:04;;;;;;;2.30;1.50;;;24.70;52.10;;;;;;220263;1267;22623;-50
2022/07/09 09:06:10;;;;;;;2.80;1.60;;;24.70;52.00;;;;;;220522;1268;25379;-53
2022/07/09 09:11:22;;;;;;;;;;;24.70;52.20;;;;;;220200;1270;24254;-52
2022/07/09 09:16:26;;;;;;;3.10;1.40;;;24.70;51.80;;;;;;220348;1266;22525;-55
2022/07/09 09:21:32;;;;;;;2.40;1.40;;;24.80;51.90;;;;;;220462;1268;22525;-52
2022/07/09 09:26:36;;;;;;;2.40;1.40;;;24.80;51.80;;;;;;220383;1267;25229;-53
2022/07/09 09:31:48;;;;;;;2.60;1.50;;;24.80;51.80;;;;;;220764;1267;23154;-53
2022/07/09 09:36:54;;;;;;;2.10;1.30;;;24.80;51.70;;;;;;220606;1267;25392;-52
2022/07/09 09:42:01;;;;;;;2.80;1.40;;;24.80;52.00;;;;;;220233;1267;24562;-54
2022/07/09 09:47:06;;;;;;;2.20;1.40;;;24.80;51.60;;;;;;220639;1267;22567;-50
2022/07/09 09:52:10;;;;;;;3.60;1.60;;;24.80;51.40;;;;;;220254;1269;24224;-54
2022/07/09 09:57:16;;;;;;;2.60;1.50;;;24.80;51.60;;;;;;220600;1267;22555;-55
2022/07/09 10:02:21;;;;;;;2.30;1.40;;;24.90;51.30;;;;;;220752;1267;22774;-49
2022/07/09 10:07:25;;;;;;;3.30;1.50;;;24.90;51.20;;;;;;220445;1267;23957;-52
2022/07/09 10:12:30;;;;;;;2.20;1.40;;;24.90;51.50;;;;;;220838;1267;22544;-53
2022/07/09 10:17:41;;;;;;;2.60;1.40;;;24.90;51.20;;;;;;220775;1267;24293;-53
2022/07/09 10:22:48;;;;;;;2.50;1.60;;;24.90;51.10;;;;;;220409;1267;25330;-52
2022/07/09 10:27:52;;;;;;;2.80;1.60;;;24.90;51.10;;;;;;220597;1267;23957;-53
2022/07/09 10:33:09;;;;;;;3.20;1.50;;;25.00;51.30;;;;;;220375;1267;22578;-53
2022/07/09 10:38:14;;;;;;;2.40;1.40;;;25.00;51.00;;;;;;220424;1268;22589;-53
2022/07/09 10:43:18;;;;;;;2.40;1.40;;;25.00;50.90;;;;;;220632;1266;23181;-56
2022/07/09 10:48:31;;;;;;;2.30;1.40;;;25.00;50.80;;;;;;220925;1267;25392;-53
2022/07/09 10:53:35;;;;;;;2.70;1.60;;;25.00;51.10;;;;;;220441;1267;24157;-52
2022/07/09 10:58:46;;;;;;;2.40;1.50;;;25.10;50.80;;;;;;220609;1267;24292;-53
2022/07/09 11:03:51;;;;;;;2.60;1.40;;;25.10;50.80;;;;;;220535;1268;24346;-55
2022/07/09 11:08:54;;;;;;;1.90;1.50;;;25.10;50.70;;;;;;220773;1267;25198;-52
2022/07/09 11:14:00;;;;;;;4.00;1.60;;;25.10;50.60;;;;;;220769;1269;22597;-51
2022/07/09 11:19:18;;;;;;;2.90;1.50;;;25.10;50.60;;;;;;220473;1266;22602;-55
2022/07/09 11:24:26;;;;;;;2.50;1.60;;;25.10;50.50;;;;;;220767;1267;22567;-52
2022/07/09 11:29:30;;;;;;;2.50;1.40;;;25.20;50.60;;;;;;220775;1267;25239;-49
2022/07/09 11:34:34;;;;;;;2.30;1.50;;;25.20;50.80;;;;;;220795;1267;22548;-52
2022/07/09 11:39:38;;;;;;;2.70;1.60;;;25.20;50.50;;;;;;220318;1270;22659;-54
2022/07/09 11:44:53;;;;;;;2.80;1.60;;;25.30;50.40;;;;;;220580;1266;25357;-52
2022/07/09 11:50:06;;;;;;;2.00;1.50;;;25.30;50.20;;;;;;220834;1267;25536;-53
2022/07/09 11:55:11;;;;;;;2.30;1.50;;;25.30;49.80;;;;;;220937;1267;25251;-53
2022/07/09 12:00:27;;;;;;;2.60;1.60;;;25.30;50.00;;;;;;220891;1267;26589;-53
2022/07/09 12:05:39;;;;;;;2.10;1.50;;;25.30;50.30;;;;;;220431;1267;22780;-54
2022/07/09 12:10:48;;;;;;;2.90;1.90;;;25.40;49.90;;;;;;220827;1267;22538;-54
2022/07/09 12:15:51;;;;;;;3.30;2.10;;;25.40;49.80;;;;;;220835;1267;22540;-52
2022/07/09 12:20:56;;;;;;;2.10;1.60;;;25.40;49.70;;;;;;220509;1268;22532;-52
2022/07/09 12:26:00;;;;;;;2.80;1.90;;;25.40;49.80;;;;;;220645;1267;24214;-52
2022/07/09 12:31:04;;;;;;;4.30;2.10;;;25.40;49.70;;;;;;220470;1267;23305;-51
2022/07/09 12:36:08;;;;;;;3.40;2.40;;;25.40;49.60;;;;;;220219;1268;24216;-57
2022/07/09 12:41:12;;;;;;;2.60;2.00;;;25.40;49.70;;;;;;220381;1267;22550;-51
2022/07/09 12:46:16;;;;;;;4.00;2.30;;;25.40;49.70;;;;;;220742;1267;25501;-50
2022/07/09 12:51:19;;;;;;;2.80;2.10;;;25.40;50.10;;;;;;220592;1267;25264;-55
2022/07/09 12:56:23;;;;;;;3.70;1.70;;;25.40;49.70;;;;;;220405;1267;22699;-54
2022/07/09 13:01:48;;;;;;;3.30;2.10;;;25.50;49.70;;;;;;220198;1268;25360;-51
2022/07/09 13:06:52;;;;;;;3.80;2.20;;;25.50;49.60;;;;;;220921;1267;22522;-51
2022/07/09 13:11:56;;;;;;;3.40;2.10;;;25.50;49.60;;;;;;220983;1267;25236;-53
2022/07/09 13:17:00;;;;;;;3.40;2.60;;;25.50;49.60;;;;;;220793;1267;25234;-51
2022/07/09 13:22:24;;;;;;;3.50;2.50;;;25.40;49.30;;;;;;220589;1267;25250;-52
2022/07/09 13:27:28;;;;;;;2.80;2.10;;;25.40;49.10;;;;;;220578;1267;22767;-58
2022/07/09 13:32:34;;;;;;;3.80;2.40;;;25.40;49.10;;;;;;220934;1267;316913;-49
2022/07/09 13:37:48;;;;;;;3.00;2.50;;;25.40;49.10;;;;;;220808;1267;24313;-54
2022/07/09 13:42:55;;;;;;;3.60;2.50;;;25.40;49.00;;;;;;220691;1268;25274;-52
2022/07/09 13:47:59;;;;;;;3.80;2.50;;;25.40;49.10;;;;;;220812;1267;25342;-54
2022/07/09 13:53:03;;;;;;;4.20;3.10;;;25.40;48.90;;;;;;220442;1267;24212;-52
2022/07/09 13:58:07;;;;;;;3.70;2.70;;;25.40;49.00;;;;;;220782;1268;23070;-52
2022/07/09 14:03:11;;;;;;;6.20;3.20;;;25.40;49.10;;;;;;220404;1267;23788;-53
2022/07/09 14:08:15;;;;;;;4.50;2.90;;;25.40;49.20;;;;;;220656;1268;22599;-53
2022/07/09 14:13:30;;;;;;;3.00;2.70;;;25.30;49.60;;;;;;220985;1267;24412;-51
2022/07/09 14:18:40;;;;;;;4.20;2.90;;;25.30;49.10;;;;;;220748;1267;24324;-54
2022/07/09 14:23:47;;;;;;;3.70;3.00;;;25.30;49.10;;;;;;220928;1267;22553;-49
2022/07/09 14:28:53;;;;;;;4.00;3.00;;;25.30;49.10;;;;;;220614;1267;25305;-52
2022/07/09 14:33:59;;;;;;;4.10;3.30;;;25.30;49.40;;;;;;220475;1267;22623;-51
2022/07/09 14:39:07;;;;;;;3.60;2.70;;;25.30;49.20;;;;;;220873;1267;24259;-51
2022/07/09 14:44:12;;;;;;;3.70;3.00;;;25.30;49.10;;;;;;220880;1266;22573;-51
2022/07/09 14:49:17;;;;;;;3.50;3.00;;;25.30;49.40;;;;;;220795;1267;22559;-49
2022/07/09 14:54:25;;;;;;;3.60;3.10;;;25.30;49.30;;;;;;220828;1267;22528;-51
2022/07/09 14:59:38;;;;;;;3.70;3.10;;;25.30;49.20;;;;;;220474;1267;26543;-52
2022/07/09 15:04:52;;;;;;;5.40;3.00;;;25.30;49.90;;;;;;220431;1268;25293;-53
2022/07/09 15:09:57;;;;;;;3.80;2.90;;;25.30;49.40;;;;;;220173;1269;25405;-52
2022/07/09 15:15:06;;;;;;;4.20;3.10;;;25.30;49.80;;;;;;221063;1267;22622;-52
2022/07/09 15:20:23;;;;;;;4.00;3.30;;;25.30;49.60;;;;;;220590;1267;22701;-52
2022/07/09 15:25:33;;;;;;;4.30;3.00;;;25.30;49.50;;;;;;220697;1267;22720;-50
2022/07/09 15:30:53;;;;;;;4.00;2.90;;;25.40;49.80;;;;;;220683;1267;25213;-52
2022/07/09 15:36:13;;;;;;;4.40;3.30;;;25.40;49.60;;;;;;220711;1267;22553;-54
2022/07/09 15:41:40;;;;;;;4.10;3.00;;;25.30;49.50;;;;;;220409;1270;22529;-53
2022/07/09 15:46:47;;;;;;;4.90;3.40;;;25.30;49.50;;;;;;220996;1267;22614;-51
2022/07/09 15:51:51;;;;;;;3.80;3.20;;;25.40;49.60;;;;;;220853;1267;22556;-55
2022/07/09 15:56:55;;;;;;;4.50;3.30;;;25.30;49.60;;;;;;220686;1267;25378;-52
2022/07/09 16:01:59;;;;;;;4.50;3.10;;;25.30;50.00;;;;;;220910;1267;25279;-51
2022/07/09 16:07:03;;;;;;;4.30;3.00;;;25.40;49.80;;;;;;220353;1267;22548;-53
2022/07/09 16:17:32;;;;;;;3.70;3.10;;;25.30;50.00;;;;;;220623;1268;24384;-53
2022/07/09 16:22:40;;;;;;;3.80;3.30;;;25.30;50.10;;;;;;220676;1270;23064;-55
2022/07/09 16:27:46;;;;;;;4.20;3.10;;;25.30;50.00;;;;;;220680;1267;24262;-50
2022/07/09 16:32:51;;;;;;;4.70;3.30;;;25.30;50.20;;;;;;220708;1267;24286;-52
2022/07/09 16:37:55;;;;;;;4.10;3.20;;;25.30;50.20;;;;;;220514;1267;25708;-53
2022/07/09 16:43:00;;;;;;;4.00;3.10;;;25.30;50.30;;;;;;220668;1268;24059;-49
2022/07/09 16:48:04;;;;;;;4.00;2.90;;;25.30;50.50;;;;;;220821;1267;25235;-53
2022/07/09 16:53:10;;;;;;;3.60;3.00;;;25.30;50.20;;;;;;220902;1267;25305;-51
2022/07/09 16:58:14;;;;;;;3.70;3.10;;;25.30;50.60;;;;;;220787;1267;22544;-53
2022/07/09 17:03:17;;;;;;;4.30;3.20;;;25.30;50.30;;;;;;220824;1267;24265;-53
2022/07/09 17:08:21;;;;;;;3.50;2.70;;;25.20;50.30;;;;;;220571;1267;22535;-52
2022/07/09 17:13:26;;;;;;;3.70;2.90;;;25.30;50.40;;;;;;220030;1270;22606;-50
2022/07/09 17:18:32;;;;;;;3.70;3.30;;;25.30;50.30;;;;;;220445;1267;22547;-53
2022/07/09 17:23:36;;;;;;;3.50;2.90;;;25.20;50.40;;;;;;220634;1267;22721;-55
2022/07/09 17:28:40;;;;;;;3.70;2.90;;;25.20;50.50;;;;;;220317;1267;22554;-51
2022/07/09 17:33:44;;;;;;;4.40;3.30;;;25.30;50.50;;;;;;220415;1270;22652;-54
2022/07/09 17:38:47;;;;;;;4.00;2.90;;;25.20;50.70;;;;;;220329;1270;22538;-53
2022/07/09 17:43:52;;;;;;;4.40;3.20;;;25.30;50.50;;;;;;220884;1267;25333;-54
2022/07/09 17:48:55;;;;;;;3.40;3.00;;;25.30;50.80;;;;;;220882;1267;22711;-51
2022/07/09 17:53:59;;;;;;;4.70;3.30;;;25.30;50.50;;;;;;220790;1267;22534;-55
2022/07/09 17:59:09;;;;;;;3.70;3.10;;;25.20;50.40;;;;;;220470;1270;22540;-53
2022/07/09 18:04:16;;;;;;;3.70;3.20;;;25.20;50.30;;;;;;220323;1267;22541;-51
2022/07/09 18:09:20;;;;;;;4.40;3.60;;;25.20;50.40;;;;;;220312;1270;25346;-49
2022/07/09 18:14:23;;;;;;;4.20;3.40;;;25.20;50.80;;;;;;220440;1270;22547;-51
2022/07/09 18:19:28;;;;;;;4.00;3.30;;;25.20;50.50;;;;;;221003;1267;22523;-51
2022/07/09 18:24:32;;;;;;;5.10;2.90;;;25.20;50.50;;;;;;220489;1267;22629;-52
2022/07/09 18:29:36;;;;;;;3.70;2.90;;;25.20;50.60;;;;;;220534;1270;24345;-54
2022/07/09 18:34:40;;;;;;;3.70;3.00;;;25.20;50.70;;;;;;220622;1267;22548;-51
2022/07/09 18:39:44;;;;;;;3.50;3.10;;;25.20;50.70;;;;;;220524;1267;22525;-53
2022/07/09 18:44:48;;;;;;;3.80;3.40;;;25.20;50.80;;;;;;220767;1269;22537;-54
2022/07/09 18:49:52;;;;;;;4.20;3.30;;;25.20;50.80;;;;;;220625;1267;25383;-53
2022/07/09 18:54:56;;;;;;;4.20;3.20;;;25.10;50.80;;;;;;220512;1270;22540;-53
2022/07/09 19:00:00;;;;;;;4.50;3.30;;;25.10;50.90;;;;;;220562;1267;24927;-53
2022/07/09 19:05:08;;;;;;;4.50;3.60;;;25.10;50.90;;;;;;220715;1267;25306;-53
2022/07/09 19:10:13;;;;;;;3.40;3.00;;;25.10;51.00;;;;;;220367;1267;25296;-50
2022/07/09 19:15:19;;;;;;;3.40;2.90;;;25.10;50.90;;;;;;220840;1267;22611;-55
2022/07/09 19:20:24;;;;;;;4.10;3.40;;;25.10;50.90;;;;;;220530;1270;22534;-49
2022/07/09 19:25:29;;;;;;;3.60;3.10;;;25.10;50.90;;;;;;220274;1268;23067;-52
2022/07/09 19:35:57;;;;;;;4.80;3.40;;;25.00;51.00;;;;;;220533;1267;25237;-54
2022/07/09 19:41:01;;;;;;;3.60;2.90;;;25.00;51.10;;;;;;220563;1267;22530;-53
2022/07/09 19:46:05;;;;;;;3.40;2.90;;;25.00;51.10;;;;;;220569;1268;22691;-53
2022/07/09 19:51:09;;;;;;;5.30;3.10;;;25.00;51.10;;;;;;221022;1267;22535;-53
2022/07/09 19:56:13;;;;;;;3.20;2.70;;;25.00;51.10;;;;;;220805;1268;22560;-52
2022/07/09 20:01:18;;;;;;;3.40;3.00;;;25.00;51.10;;;;;;220927;1267;25286;-52
2022/07/09 20:06:24;;;;;;;4.40;3.20;;;25.00;51.10;;;;;;220447;1270;25347;-52
2022/07/09 20:11:28;;;;;;;4.10;2.90;;;25.00;51.50;;;;;;220724;1270;24313;-55
2022/07/09 20:16:33;;;;;;;4.10;3.20;;;25.00;51.30;;;;;;220755;1268;24313;-53
2022/07/09 20:21:40;;;;;;;3.60;3.10;;;25.00;51.30;;;;;;220480;1270;22989;-54
2022/07/09 20:26:45;;;;;;;3.60;3.00;;;25.00;51.30;;;;;;220409;1270;22547;-53
2022/07/09 20:31:49;;;;;;;3.60;3.10;;;25.00;51.30;;;;;;220631;1270;25298;-52
2022/07/09 20:36:55;;;;;;;3.20;2.90;;;24.90;51.30;;;;;;220616;1267;23761;-50
2022/07/09 20:41:59;;;;;;;3.30;2.70;;;24.90;51.30;;;;;;220592;1270;25392;-52
2022/07/09 20:47:04;;;;;;;3.80;3.40;;;24.90;51.70;;;;;;220518;1268;25300;-54
2022/07/09 20:52:26;;;;;;;4.30;3.10;;;24.90;51.40;;;;;;220860;1267;22615;-51
2022/07/09 20:57:42;;;;;;;3.80;2.90;;;24.90;51.50;;;;;;220526;1268;23341;-52
2022/07/09 21:03:04;;;;;;;3.70;3.10;;;24.90;51.50;;;;;;220263;1267;24354;-50
2022/07/09 21:08:11;;;;;;;3.70;3.10;;;24.90;51.50;;;;;;220393;1267;24384;-50
2022/07/09 21:13:25;;;;;;;3.80;3.10;;;24.90;51.60;;;;;;220706;1268;22550;-53
2022/07/09 21:18:50;;;;;;;3.90;3.10;;;24.90;51.60;;;;;;220678;1267;22541;-53
2022/07/09 21:24:00;;;;;;;3.60;2.90;;;24.90;51.60;;;;;;220512;1268;23169;-54
2022/07/09 21:29:07;;;;;;;3.50;3.00;;;24.80;51.60;;;;;;220211;1271;25559;-56
2022/07/09 21:34:13;;;;;;;4.10;2.60;;;24.90;51.70;;;;;;220674;1268;24226;-50
2022/07/09 21:39:26;;;;;;;3.70;3.00;;;24.80;51.70;;;;;;220361;1270;24428;-54
2022/07/09 21:44:33;;;;;;;3.30;2.80;;;24.80;51.70;;;;;;220696;1270;22586;-53
2022/07/09 21:49:38;;;;;;;5.50;2.90;;;24.80;51.80;;;;;;220331;1271;22534;-52
2022/07/09 21:54:41;;;;;;;4.00;2.90;;;24.80;52.40;;;;;;220163;1270;22546;-52
2022/07/09 21:59:46;;;;;;;3.40;2.60;;;24.80;51.90;;;;;;220080;1271;25221;-52
2022/07/09 22:04:50;;;;;;;2.90;2.50;;;24.80;51.80;;;;;;220182;1271;25232;-52
2022/07/09 22:09:54;;;;;;;3.50;2.80;;;24.80;51.80;;;;;;220139;1268;22659;-53
2022/07/09 22:14:59;;;;;;;3.00;2.70;;;24.80;51.90;;;;;;220139;1271;22619;-56
2022/07/09 22:20:10;;;;;;;3.10;2.70;;;24.80;51.90;;;;;;220022;1270;25350;-54
2022/07/09 22:25:14;;;;;;;4.70;2.70;;;24.80;52.20;;;;;;220314;1267;24406;-53
2022/07/09 22:30:28;;;;;;;2.60;2.20;;;24.70;51.90;;;;;;220305;1268;25414;-52
2022/07/09 22:35:35;;;;;;;3.50;2.60;;;24.70;51.90;;;;;;220323;1268;22544;-51
2022/07/09 22:40:39;;;;;;;3.10;2.50;;;24.70;51.90;;;;;;220172;1271;25906;-54
2022/07/09 22:45:43;;;;;;;3.50;2.50;;;24.70;51.90;;;;;;220349;1268;22535;-52
2022/07/09 22:50:46;;;;;;;3.00;2.60;;;24.70;52.30;;;;;;220399;1268;24928;-50
2022/07/09 22:55:50;;;;;;;3.60;2.70;;;24.70;51.90;;;;;;220289;1268;22582;-53
2022/07/09 23:00:54;;;;;;;3.50;2.50;;;24.70;52.00;;;;;;220426;1268;22546;-53
2022/07/09 23:05:58;;;;;;;3.10;2.60;;;24.70;52.00;;;;;;220238;1271;22612;-51
2022/07/09 23:11:02;;;;;;;4.70;2.60;;;24.70;52.10;;;;;;220376;1268;22538;-52
2022/07/09 23:16:06;;;;;;;4.00;2.80;;;24.70;52.10;;;;;;220460;1268;24227;-51
2022/07/09 23:21:10;;;;;;;3.40;2.90;;;24.70;52.10;;;;;;220438;1268;24256;-52
2022/07/09 23:26:14;;;;;;;3.60;2.40;;;24.60;52.40;;;;;;220150;1270;25305;-48
2022/07/09 23:31:19;;;;;;;3.30;2.60;;;24.60;52.50;;;;;;220145;1268;22556;-53
2022/07/09 23:36:23;;;;;;;3.10;2.30;;;24.60;52.20;;;;;;220308;1268;25249;-51
2022/07/09 23:41:26;;;;;;;4.40;2.50;;;24.60;52.20;;;;;;220184;1270;25415;-50
2022/07/09 23:46:30;;;;;;;3.10;2.50;;;24.60;52.20;;;;;;220144;1268;22543;-54
2022/07/09 23:51:34;;;;;;;3.10;2.50;;;24.60;52.20;;;;;;220142;1270;22547;-52
2022/07/09 23:56:37;;;;;;;3.10;2.60;;;24.60;52.20;;;;;;220118;1268;22551;-52
